RYR3BV LEMH-EIDW
Flight info
| Callsign | RYR3BV |
|---|---|
| Flight time | 2h 19m |
| Altitude | 36000 |
| Route | MEROS DCT LAPIT DCT CHELY DCT LUMAS DCT SOSUR DCT JUSQO DCT DIVKO DCT FJR DCT GAI DCT SECHE DCT UVELI DCT CNA DCT MANAK DCT TIRAV DCT MOKOR DCT BAGAD DCT DOLUR DCT UPCAB DCT IJALA DCT EVRIN DCT SUTEX SUTEX4L |
| Aircraft | B738/M-SDE2E3FGHIRWXY/LB1 |
Departure
| Time | 2026-05-05 19:49 |
|---|---|
| Airport | Menorca Airport (LEMH) |
Arrival
| Time | 2026-05-05 22:09 |
|---|---|
| Airport | Dublin Airport (EIDW) |
| Time | Latitude | Longitude | Altitude | Speed | Heading |
|---|---|---|---|---|---|
| 2026-05-05 18:44 | 39.86575 | 4.22428 | 285 ft | 0 kts | 99° |
| 2026-05-05 19:39 | 39.86577 | 4.22415 | 286 ft | 2 kts | 98° |
| 2026-05-05 19:39 | 39.86579 | 4.22394 | 287 ft | 2 kts | 98° |
| 2026-05-05 19:39 | 39.86582 | 4.22373 | 287 ft | 2 kts | 94° |
| 2026-05-05 19:40 | 39.86580 | 4.22351 | 288 ft | 2 kts | 62° |
| 2026-05-05 19:40 | 39.86568 | 4.22338 | 298 ft | 2 kts | 11° |
| 2026-05-05 19:40 | 39.86554 | 4.22335 | 290 ft | 1 kts | 8° |
| 2026-05-05 19:40 | 39.86553 | 4.22335 | 290 ft | 0 kts | 8° |
| 2026-05-05 19:44 | 39.86569 | 4.22338 | 288 ft | 6 kts | 9° |
| 2026-05-05 19:44 | 39.86619 | 4.22348 | 289 ft | 8 kts | 9° |
| 2026-05-05 19:44 | 39.86673 | 4.22360 | 289 ft | 9 kts | 9° |
| 2026-05-05 19:45 | 39.86743 | 4.22374 | 290 ft | 12 kts | 9° |
| 2026-05-05 19:45 | 39.86820 | 4.22390 | 296 ft | 12 kts | 9° |
| 2026-05-05 19:45 | 39.86898 | 4.22391 | 298 ft | 11 kts | 330° |
| 2026-05-05 19:45 | 39.86925 | 4.22299 | 297 ft | 11 kts | 282° |
| 2026-05-05 19:46 | 39.86981 | 4.22253 | 300 ft | 11 kts | 5° |
| 2026-05-05 19:46 | 39.87054 | 4.22266 | 302 ft | 10 kts | 9° |
| 2026-05-05 19:46 | 39.87124 | 4.22282 | 304 ft | 10 kts | 10° |
| 2026-05-05 19:46 | 39.87193 | 4.22295 | 306 ft | 10 kts | 8° |
| 2026-05-05 19:47 | 39.87259 | 4.22309 | 308 ft | 10 kts | 9° |
| 2026-05-05 19:47 | 39.87324 | 4.22323 | 310 ft | 9 kts | 9° |
| 2026-05-05 19:47 | 39.87381 | 4.22301 | 312 ft | 9 kts | 301° |
| 2026-05-05 19:47 | 39.87396 | 4.22215 | 311 ft | 11 kts | 273° |
| 2026-05-05 19:48 | 39.87369 | 4.22119 | 309 ft | 11 kts | 236° |
| 2026-05-05 19:48 | 39.87310 | 4.22080 | 309 ft | 0 kts | 187° |
| 2026-05-05 19:48 | 39.87302 | 4.22079 | 311 ft | 5 kts | 187° |
| 2026-05-05 19:48 | 39.87050 | 4.22028 | 302 ft | 70 kts | 189° |
| 2026-05-05 19:49 | 39.86368 | 4.21888 | 302 ft | 126 kts | 189° |
| 2026-05-05 19:49 | 39.85723 | 4.21745 | 327 ft | 156 kts | 190° |
| 2026-05-05 19:49 | 39.84223 | 4.21497 | 1017 ft | 168 kts | 190° |
| 2026-05-05 19:49 | 39.83023 | 4.21280 | 1542 ft | 179 kts | 193° |
| 2026-05-05 19:50 | 39.81852 | 4.21010 | 2085 ft | 166 kts | 194° |
| 2026-05-05 19:50 | 39.80634 | 4.20740 | 2346 ft | 196 kts | 187° |
| 2026-05-05 19:50 | 39.79230 | 4.21256 | 2557 ft | 231 kts | 145° |
| 2026-05-05 19:50 | 39.78310 | 4.23054 | 2910 ft | 252 kts | 103° |
| 2026-05-05 19:51 | 39.78381 | 4.25353 | 3435 ft | 265 kts | 71° |
| 2026-05-05 19:51 | 39.79377 | 4.27423 | 3970 ft | 276 kts | 38° |
| 2026-05-05 19:51 | 39.81063 | 4.28486 | 4834 ft | 270 kts | 5° |
| 2026-05-05 19:51 | 39.82950 | 4.28629 | 5604 ft | 275 kts | 356° |
| 2026-05-05 19:52 | 39.84889 | 4.28594 | 6354 ft | 282 kts | 355° |
| 2026-05-05 19:52 | 39.86196 | 4.28584 | 6867 ft | 286 kts | 356° |
| 2026-05-05 19:52 | 39.88196 | 4.28624 | 7682 ft | 289 kts | 358° |
| 2026-05-05 19:52 | 39.90894 | 4.28772 | 8739 ft | 296 kts | 359° |
| 2026-05-05 19:53 | 39.92967 | 4.28928 | 9533 ft | 301 kts | 359° |
| 2026-05-05 19:53 | 39.94387 | 4.29041 | 10041 ft | 304 kts | 359° |
| 2026-05-05 19:53 | 39.97292 | 4.29291 | 10468 ft | 332 kts | 1° |
| 2026-05-05 19:53 | 39.98883 | 4.29493 | 10615 ft | 348 kts | 2° |
| 2026-05-05 19:54 | 40.01335 | 4.29845 | 11121 ft | 359 kts | 2° |
| 2026-05-05 19:54 | 40.03804 | 4.30192 | 11789 ft | 364 kts | 1° |
| 2026-05-05 19:54 | 40.06342 | 4.30481 | 12482 ft | 369 kts | 0° |
| 2026-05-05 19:54 | 40.08920 | 4.30733 | 13178 ft | 374 kts | 360° |
| 2026-05-05 19:55 | 40.11534 | 4.30966 | 13844 ft | 379 kts | 359° |
| 2026-05-05 19:55 | 40.14176 | 4.31193 | 14488 ft | 383 kts | 359° |
| 2026-05-05 19:55 | 40.16848 | 4.31419 | 15170 ft | 386 kts | 359° |
| 2026-05-05 19:55 | 40.19539 | 4.31645 | 15826 ft | 389 kts | 359° |
| 2026-05-05 19:56 | 40.22258 | 4.31870 | 16454 ft | 394 kts | 359° |
| 2026-05-05 19:56 | 40.25010 | 4.32094 | 17096 ft | 398 kts | 358° |
| 2026-05-05 19:56 | 40.27783 | 4.32330 | 17730 ft | 402 kts | 359° |
| 2026-05-05 19:56 | 40.30591 | 4.32665 | 18334 ft | 407 kts | 1° |
| 2026-05-05 19:57 | 40.33415 | 4.33118 | 18885 ft | 411 kts | 2° |
| 2026-05-05 19:57 | 40.36264 | 4.33646 | 19449 ft | 414 kts | 3° |
| 2026-05-05 19:57 | 40.39085 | 4.34207 | 20010 ft | 417 kts | 3° |
| 2026-05-05 19:57 | 40.41970 | 4.34789 | 20547 ft | 421 kts | 3° |
| 2026-05-05 19:58 | 40.44874 | 4.35416 | 21072 ft | 425 kts | 4° |
| 2026-05-05 19:58 | 40.47798 | 4.35980 | 21567 ft | 423 kts | 355° |
| 2026-05-05 19:58 | 40.50673 | 4.35520 | 22047 ft | 410 kts | 335° |
| 2026-05-05 19:58 | 40.53209 | 4.33978 | 22603 ft | 396 kts | 319° |
| 2026-05-05 19:59 | 40.55482 | 4.31949 | 23173 ft | 396 kts | 317° |
| 2026-05-05 19:59 | 40.57745 | 4.29858 | 23627 ft | 398 kts | 316° |
| 2026-05-05 19:59 | 40.60014 | 4.27744 | 24030 ft | 401 kts | 316° |
| 2026-05-05 19:59 | 40.62301 | 4.25620 | 24438 ft | 404 kts | 316° |
| 2026-05-05 20:00 | 40.64616 | 4.23482 | 24837 ft | 407 kts | 316° |
| 2026-05-05 20:00 | 40.66952 | 4.21334 | 25223 ft | 411 kts | 316° |
| 2026-05-05 20:00 | 40.69305 | 4.19179 | 25603 ft | 413 kts | 316° |
| 2026-05-05 20:00 | 40.71646 | 4.17040 | 25980 ft | 416 kts | 316° |
| 2026-05-05 20:01 | 40.74039 | 4.14855 | 26350 ft | 419 kts | 316° |
| 2026-05-05 20:01 | 40.76445 | 4.12657 | 26713 ft | 422 kts | 316° |
| 2026-05-05 20:01 | 40.78863 | 4.10449 | 27067 ft | 425 kts | 316° |
| 2026-05-05 20:01 | 40.81303 | 4.08218 | 27433 ft | 427 kts | 316° |
| 2026-05-05 20:02 | 40.83753 | 4.05975 | 27774 ft | 430 kts | 316° |
| 2026-05-05 20:02 | 40.86220 | 4.03716 | 28117 ft | 432 kts | 316° |
| 2026-05-05 20:02 | 40.88697 | 4.01444 | 28454 ft | 435 kts | 315° |
| 2026-05-05 20:02 | 40.91190 | 3.99155 | 28780 ft | 437 kts | 315° |
| 2026-05-05 20:03 | 40.93695 | 3.96854 | 29105 ft | 440 kts | 315° |
| 2026-05-05 20:03 | 40.96217 | 3.94534 | 29424 ft | 442 kts | 315° |
| 2026-05-05 20:03 | 40.98753 | 3.92200 | 29746 ft | 444 kts | 315° |
| 2026-05-05 20:03 | 41.01296 | 3.89857 | 30035 ft | 447 kts | 315° |
| 2026-05-05 20:04 | 41.03820 | 3.87530 | 30317 ft | 448 kts | 315° |
| 2026-05-05 20:04 | 41.06375 | 3.85175 | 30707 ft | 446 kts | 315° |
| 2026-05-05 20:04 | 41.08916 | 3.82831 | 31117 ft | 444 kts | 315° |
| 2026-05-05 20:04 | 41.11442 | 3.80499 | 31481 ft | 443 kts | 315° |
| 2026-05-05 20:05 | 41.13972 | 3.78158 | 31796 ft | 442 kts | 315° |
| 2026-05-05 20:05 | 41.16493 | 3.75822 | 32137 ft | 442 kts | 315° |
| 2026-05-05 20:05 | 41.19011 | 3.73486 | 32513 ft | 440 kts | 315° |
| 2026-05-05 20:05 | 41.21518 | 3.71159 | 32880 ft | 438 kts | 315° |
| 2026-05-05 20:06 | 41.23985 | 3.68867 | 33222 ft | 438 kts | 315° |
| 2026-05-05 20:06 | 41.26474 | 3.66550 | 33555 ft | 437 kts | 315° |
| 2026-05-05 20:06 | 41.28965 | 3.64231 | 33897 ft | 435 kts | 315° |
| 2026-05-05 20:06 | 41.31443 | 3.61921 | 34164 ft | 435 kts | 315° |
| 2026-05-05 20:07 | 41.33925 | 3.59605 | 34421 ft | 434 kts | 315° |
| 2026-05-05 20:07 | 41.36399 | 3.57293 | 34676 ft | 434 kts | 315° |
| 2026-05-05 20:07 | 41.38869 | 3.54984 | 34918 ft | 433 kts | 315° |
| 2026-05-05 20:07 | 41.41307 | 3.52702 | 35154 ft | 433 kts | 315° |
| 2026-05-05 20:08 | 41.43773 | 3.50393 | 35388 ft | 433 kts | 316° |
| 2026-05-05 20:08 | 41.46232 | 3.48087 | 35617 ft | 433 kts | 316° |
| 2026-05-05 20:08 | 41.48696 | 3.45775 | 35838 ft | 432 kts | 316° |
| 2026-05-05 20:09 | 41.53643 | 3.41122 | 35907 ft | 436 kts | 316° |
| 2026-05-05 20:09 | 41.58637 | 3.36416 | 35916 ft | 443 kts | 316° |
| 2026-05-05 20:10 | 41.63718 | 3.31618 | 35921 ft | 450 kts | 316° |
| 2026-05-05 20:10 | 41.68840 | 3.26777 | 35914 ft | 456 kts | 316° |
| 2026-05-05 20:11 | 41.74040 | 3.21856 | 35912 ft | 459 kts | 316° |
| 2026-05-05 20:11 | 41.79274 | 3.16894 | 35911 ft | 461 kts | 316° |
| 2026-05-05 20:12 | 41.84510 | 3.11918 | 35907 ft | 461 kts | 316° |
| 2026-05-05 20:12 | 41.89748 | 3.06928 | 35918 ft | 462 kts | 316° |
| 2026-05-05 20:13 | 41.94956 | 3.01956 | 35923 ft | 462 kts | 316° |
| 2026-05-05 20:13 | 42.00195 | 2.96944 | 35919 ft | 462 kts | 316° |
| 2026-05-05 20:14 | 42.05434 | 2.91921 | 35921 ft | 462 kts | 317° |
| 2026-05-05 20:14 | 42.10665 | 2.86895 | 35923 ft | 462 kts | 317° |
| 2026-05-05 20:15 | 42.15899 | 2.81856 | 35921 ft | 462 kts | 317° |
| 2026-05-05 20:15 | 42.21130 | 2.76810 | 35939 ft | 462 kts | 317° |
| 2026-05-05 20:16 | 42.26365 | 2.71748 | 35948 ft | 463 kts | 317° |
| 2026-05-05 20:16 | 42.31614 | 2.66662 | 35947 ft | 464 kts | 317° |
| 2026-05-05 20:17 | 42.36822 | 2.61607 | 35950 ft | 464 kts | 317° |
| 2026-05-05 20:17 | 42.42064 | 2.56509 | 35960 ft | 464 kts | 318° |
| 2026-05-05 20:18 | 42.47300 | 2.51404 | 35955 ft | 465 kts | 318° |
| 2026-05-05 20:18 | 42.52544 | 2.46282 | 35956 ft | 464 kts | 318° |
| 2026-05-05 20:19 | 42.57783 | 2.41151 | 35969 ft | 464 kts | 318° |
| 2026-05-05 20:19 | 42.62996 | 2.36038 | 35984 ft | 465 kts | 318° |
| 2026-05-05 20:20 | 42.68235 | 2.30887 | 35967 ft | 465 kts | 318° |
| 2026-05-05 20:20 | 42.73486 | 2.25714 | 35986 ft | 465 kts | 318° |
| 2026-05-05 20:21 | 42.78738 | 2.20527 | 35968 ft | 467 kts | 318° |
| 2026-05-05 20:21 | 42.83989 | 2.15332 | 36005 ft | 466 kts | 318° |
| 2026-05-05 20:22 | 42.89234 | 2.10131 | 36000 ft | 466 kts | 318° |
| 2026-05-05 20:22 | 42.94482 | 2.04916 | 36000 ft | 467 kts | 318° |
| 2026-05-05 20:23 | 42.99705 | 1.99715 | 36000 ft | 468 kts | 319° |
| 2026-05-05 20:23 | 43.04963 | 1.94467 | 35994 ft | 468 kts | 319° |
| 2026-05-05 20:24 | 43.10224 | 1.89205 | 35996 ft | 468 kts | 319° |
| 2026-05-05 20:24 | 43.15480 | 1.83937 | 35998 ft | 468 kts | 319° |
| 2026-05-05 20:25 | 43.20740 | 1.78654 | 35994 ft | 468 kts | 319° |
| 2026-05-05 20:25 | 43.25995 | 1.73363 | 35996 ft | 468 kts | 319° |
| 2026-05-05 20:26 | 43.31256 | 1.68055 | 35993 ft | 469 kts | 319° |
| 2026-05-05 20:26 | 43.36476 | 1.62777 | 35988 ft | 469 kts | 319° |
| 2026-05-05 20:27 | 43.41735 | 1.57447 | 35983 ft | 469 kts | 319° |
| 2026-05-05 20:27 | 43.47005 | 1.52095 | 35977 ft | 470 kts | 319° |
| 2026-05-05 20:28 | 43.52261 | 1.46744 | 35974 ft | 470 kts | 319° |
| 2026-05-05 20:28 | 43.57511 | 1.41389 | 35971 ft | 470 kts | 319° |
| 2026-05-05 20:29 | 43.62736 | 1.36046 | 35973 ft | 470 kts | 319° |
| 2026-05-05 20:29 | 43.67998 | 1.30655 | 35973 ft | 470 kts | 319° |
| 2026-05-05 20:30 | 43.73249 | 1.25262 | 35975 ft | 471 kts | 319° |
| 2026-05-05 20:30 | 43.78509 | 1.19848 | 35975 ft | 471 kts | 319° |
| 2026-05-05 20:31 | 43.83733 | 1.14459 | 35977 ft | 471 kts | 319° |
| 2026-05-05 20:31 | 43.88986 | 1.09027 | 35977 ft | 471 kts | 319° |
| 2026-05-05 20:32 | 43.94252 | 1.03570 | 35980 ft | 471 kts | 319° |
| 2026-05-05 20:32 | 43.99482 | 0.98139 | 35977 ft | 471 kts | 319° |
| 2026-05-05 20:33 | 44.04727 | 0.92679 | 35972 ft | 471 kts | 320° |
| 2026-05-05 20:33 | 44.09980 | 0.87199 | 35975 ft | 471 kts | 320° |
| 2026-05-05 20:34 | 44.15228 | 0.81710 | 35979 ft | 472 kts | 320° |
| 2026-05-05 20:34 | 44.20477 | 0.76208 | 35971 ft | 472 kts | 320° |
| 2026-05-05 20:35 | 44.25725 | 0.70696 | 35972 ft | 472 kts | 320° |
| 2026-05-05 20:35 | 44.30968 | 0.65175 | 35972 ft | 472 kts | 320° |
| 2026-05-05 20:36 | 44.36175 | 0.59679 | 35963 ft | 472 kts | 320° |
| 2026-05-05 20:36 | 44.41414 | 0.54137 | 35970 ft | 472 kts | 320° |
| 2026-05-05 20:37 | 44.46677 | 0.48624 | 35967 ft | 473 kts | 321° |
| 2026-05-05 20:37 | 44.52029 | 0.43245 | 35968 ft | 473 kts | 322° |
| 2026-05-05 20:38 | 44.57393 | 0.37879 | 35966 ft | 473 kts | 322° |
| 2026-05-05 20:38 | 44.62708 | 0.32525 | 35962 ft | 473 kts | 322° |
| 2026-05-05 20:39 | 44.68043 | 0.27117 | 35961 ft | 473 kts | 321° |
| 2026-05-05 20:39 | 44.73376 | 0.21693 | 35964 ft | 473 kts | 321° |
| 2026-05-05 20:40 | 44.78706 | 0.16259 | 35959 ft | 472 kts | 322° |
| 2026-05-05 20:40 | 44.84027 | 0.10821 | 35959 ft | 472 kts | 322° |
| 2026-05-05 20:41 | 44.89343 | 0.05378 | 35955 ft | 472 kts | 322° |
| 2026-05-05 20:41 | 44.94660 | -0.00080 | 35952 ft | 472 kts | 322° |
| 2026-05-05 20:42 | 44.99951 | -0.05523 | 35957 ft | 473 kts | 322° |
| 2026-05-05 20:42 | 45.05266 | -0.11004 | 35952 ft | 473 kts | 322° |
| 2026-05-05 20:43 | 45.10579 | -0.16496 | 35951 ft | 473 kts | 322° |
| 2026-05-05 20:43 | 45.14996 | -0.21071 | 35947 ft | 473 kts | 322° |
| 2026-05-05 20:44 | 45.20305 | -0.26583 | 35948 ft | 473 kts | 322° |
| 2026-05-05 20:44 | 45.26478 | -0.33008 | 35947 ft | 473 kts | 322° |
| 2026-05-05 20:45 | 45.33575 | -0.40416 | 35949 ft | 473 kts | 322° |
| 2026-05-05 20:45 | 45.38842 | -0.45929 | 35945 ft | 473 kts | 322° |
| 2026-05-05 20:46 | 45.44143 | -0.51491 | 35941 ft | 473 kts | 322° |
| 2026-05-05 20:46 | 45.49429 | -0.57052 | 35941 ft | 472 kts | 322° |
| 2026-05-05 20:47 | 45.54715 | -0.62625 | 35944 ft | 472 kts | 322° |
| 2026-05-05 20:47 | 45.59959 | -0.68166 | 35934 ft | 472 kts | 322° |
| 2026-05-05 20:48 | 45.65233 | -0.73753 | 35935 ft | 471 kts | 322° |
| 2026-05-05 20:48 | 45.70502 | -0.79348 | 35927 ft | 471 kts | 322° |
| 2026-05-05 20:49 | 45.75777 | -0.84964 | 35932 ft | 471 kts | 322° |
| 2026-05-05 20:49 | 45.81003 | -0.90540 | 35924 ft | 471 kts | 322° |
| 2026-05-05 20:50 | 45.86252 | -0.96154 | 35923 ft | 471 kts | 322° |
| 2026-05-05 20:50 | 45.91500 | -1.01780 | 35914 ft | 471 kts | 322° |
| 2026-05-05 20:51 | 45.96749 | -1.07422 | 35916 ft | 470 kts | 322° |
| 2026-05-05 20:51 | 46.01991 | -1.13070 | 35912 ft | 470 kts | 322° |
| 2026-05-05 20:52 | 46.07196 | -1.18692 | 35910 ft | 470 kts | 322° |
| 2026-05-05 20:52 | 46.12428 | -1.24355 | 35910 ft | 470 kts | 322° |
| 2026-05-05 20:53 | 46.17665 | -1.30040 | 35906 ft | 470 kts | 322° |
| 2026-05-05 20:53 | 46.22891 | -1.35724 | 35908 ft | 470 kts | 322° |
| 2026-05-05 20:54 | 46.28091 | -1.41395 | 35908 ft | 470 kts | 322° |
| 2026-05-05 20:54 | 46.33310 | -1.47101 | 35910 ft | 470 kts | 322° |
| 2026-05-05 20:55 | 46.38524 | -1.52815 | 35904 ft | 470 kts | 322° |
| 2026-05-05 20:55 | 46.43735 | -1.58539 | 35911 ft | 469 kts | 322° |
| 2026-05-05 20:56 | 46.48939 | -1.64270 | 35909 ft | 469 kts | 322° |
| 2026-05-05 20:56 | 46.54130 | -1.70001 | 35909 ft | 469 kts | 322° |
| 2026-05-05 20:57 | 46.59317 | -1.75743 | 35906 ft | 468 kts | 322° |
| 2026-05-05 20:57 | 46.64495 | -1.81487 | 35903 ft | 468 kts | 322° |
| 2026-05-05 20:58 | 46.69672 | -1.87246 | 35909 ft | 468 kts | 322° |
| 2026-05-05 20:58 | 46.74812 | -1.92976 | 35903 ft | 468 kts | 322° |
| 2026-05-05 20:59 | 46.79978 | -1.98750 | 35912 ft | 467 kts | 322° |
| 2026-05-05 20:59 | 46.85140 | -2.04535 | 35910 ft | 467 kts | 322° |
| 2026-05-05 21:00 | 46.90298 | -2.10328 | 35917 ft | 467 kts | 322° |
| 2026-05-05 21:00 | 46.95451 | -2.16132 | 35919 ft | 467 kts | 322° |
| 2026-05-05 21:01 | 47.00601 | -2.21945 | 35924 ft | 467 kts | 322° |
| 2026-05-05 21:01 | 47.05718 | -2.27736 | 35929 ft | 467 kts | 322° |
| 2026-05-05 21:02 | 47.10856 | -2.33566 | 35932 ft | 467 kts | 322° |
| 2026-05-05 21:02 | 47.15993 | -2.39409 | 35934 ft | 466 kts | 322° |
| 2026-05-05 21:03 | 47.21126 | -2.45261 | 35931 ft | 466 kts | 322° |
| 2026-05-05 21:03 | 47.26243 | -2.51111 | 35934 ft | 465 kts | 322° |
| 2026-05-05 21:04 | 47.31318 | -2.56927 | 35936 ft | 465 kts | 322° |
| 2026-05-05 21:04 | 47.36420 | -2.62790 | 35940 ft | 465 kts | 322° |
| 2026-05-05 21:05 | 47.41522 | -2.68666 | 35940 ft | 464 kts | 322° |
| 2026-05-05 21:05 | 47.46610 | -2.74541 | 35943 ft | 464 kts | 322° |
| 2026-05-05 21:06 | 47.51703 | -2.80438 | 35945 ft | 465 kts | 322° |
| 2026-05-05 21:06 | 47.56793 | -2.86344 | 35943 ft | 465 kts | 322° |
| 2026-05-05 21:07 | 47.61924 | -2.92181 | 35943 ft | 465 kts | 324° |
| 2026-05-05 21:07 | 47.67118 | -2.97824 | 35945 ft | 465 kts | 324° |
| 2026-05-05 21:08 | 47.72344 | -3.03494 | 35945 ft | 466 kts | 324° |
| 2026-05-05 21:08 | 47.77564 | -3.09209 | 35966 ft | 465 kts | 324° |
| 2026-05-05 21:09 | 47.82778 | -3.14954 | 35965 ft | 465 kts | 324° |
| 2026-05-05 21:09 | 47.87939 | -3.20663 | 35967 ft | 465 kts | 324° |
| 2026-05-05 21:10 | 47.93135 | -3.26424 | 35966 ft | 464 kts | 324° |
| 2026-05-05 21:10 | 47.98316 | -3.32182 | 35968 ft | 464 kts | 324° |
| 2026-05-05 21:11 | 48.03487 | -3.37943 | 35971 ft | 463 kts | 323° |
| 2026-05-05 21:11 | 48.08641 | -3.43699 | 35978 ft | 462 kts | 323° |
| 2026-05-05 21:12 | 48.13747 | -3.49417 | 35980 ft | 461 kts | 323° |
| 2026-05-05 21:12 | 48.18876 | -3.55174 | 35981 ft | 460 kts | 323° |
| 2026-05-05 21:13 | 48.23999 | -3.60941 | 35983 ft | 460 kts | 323° |
| 2026-05-05 21:13 | 48.29118 | -3.66717 | 35988 ft | 460 kts | 323° |
| 2026-05-05 21:14 | 48.34227 | -3.72497 | 35992 ft | 459 kts | 323° |
| 2026-05-05 21:14 | 48.39331 | -3.78286 | 35993 ft | 459 kts | 323° |
| 2026-05-05 21:15 | 48.44398 | -3.84048 | 35998 ft | 459 kts | 323° |
| 2026-05-05 21:15 | 48.49487 | -3.89849 | 35993 ft | 459 kts | 323° |
| 2026-05-05 21:16 | 48.54583 | -3.95675 | 35993 ft | 459 kts | 323° |
| 2026-05-05 21:16 | 48.59671 | -4.01506 | 35997 ft | 459 kts | 323° |
| 2026-05-05 21:17 | 48.64749 | -4.07340 | 35993 ft | 458 kts | 323° |
| 2026-05-05 21:17 | 48.69827 | -4.13189 | 35991 ft | 458 kts | 323° |
| 2026-05-05 21:18 | 48.74863 | -4.19006 | 36000 ft | 458 kts | 323° |
| 2026-05-05 21:18 | 48.79927 | -4.24870 | 35994 ft | 458 kts | 323° |
| 2026-05-05 21:19 | 48.84997 | -4.30756 | 36003 ft | 458 kts | 322° |
| 2026-05-05 21:19 | 48.90040 | -4.36626 | 36000 ft | 458 kts | 322° |
| 2026-05-05 21:20 | 48.95103 | -4.42535 | 36003 ft | 459 kts | 322° |
| 2026-05-05 21:20 | 49.00169 | -4.48462 | 36004 ft | 459 kts | 322° |
| 2026-05-05 21:21 | 49.05238 | -4.54409 | 36005 ft | 460 kts | 322° |
| 2026-05-05 21:21 | 49.10309 | -4.60375 | 36010 ft | 460 kts | 322° |
| 2026-05-05 21:22 | 49.15384 | -4.66361 | 36003 ft | 461 kts | 322° |
| 2026-05-05 21:22 | 49.20454 | -4.72357 | 36009 ft | 461 kts | 322° |
| 2026-05-05 21:23 | 49.25496 | -4.78335 | 36011 ft | 460 kts | 322° |
| 2026-05-05 21:23 | 49.30551 | -4.84345 | 36021 ft | 460 kts | 322° |
| 2026-05-05 21:24 | 49.35604 | -4.90369 | 36017 ft | 459 kts | 322° |
| 2026-05-05 21:24 | 49.40638 | -4.96388 | 36017 ft | 458 kts | 322° |
| 2026-05-05 21:25 | 49.45651 | -5.02395 | 36022 ft | 456 kts | 322° |
| 2026-05-05 21:25 | 49.50832 | -5.07973 | 36022 ft | 454 kts | 330° |
| 2026-05-05 21:26 | 49.56352 | -5.12706 | 36021 ft | 453 kts | 331° |
| 2026-05-05 21:26 | 49.61842 | -5.17362 | 36026 ft | 452 kts | 331° |
| 2026-05-05 21:27 | 49.67337 | -5.22089 | 36030 ft | 452 kts | 331° |
| 2026-05-05 21:27 | 49.72818 | -5.26853 | 36026 ft | 451 kts | 331° |
| 2026-05-05 21:28 | 49.78282 | -5.31625 | 36026 ft | 450 kts | 331° |
| 2026-05-05 21:28 | 49.83737 | -5.36401 | 36026 ft | 450 kts | 331° |
| 2026-05-05 21:29 | 49.89188 | -5.41184 | 36026 ft | 450 kts | 331° |
| 2026-05-05 21:29 | 49.94611 | -5.45955 | 36030 ft | 450 kts | 330° |
| 2026-05-05 21:30 | 50.00064 | -5.50765 | 36031 ft | 451 kts | 330° |
| 2026-05-05 21:30 | 50.05527 | -5.55596 | 36028 ft | 451 kts | 330° |
| 2026-05-05 21:31 | 50.10980 | -5.60431 | 36036 ft | 451 kts | 330° |
| 2026-05-05 21:31 | 50.16436 | -5.65283 | 36028 ft | 452 kts | 330° |
| 2026-05-05 21:32 | 50.21888 | -5.70143 | 36030 ft | 452 kts | 330° |
| 2026-05-05 21:32 | 50.27345 | -5.75020 | 36039 ft | 451 kts | 330° |
| 2026-05-05 21:33 | 50.31873 | -5.79078 | 36042 ft | 451 kts | 330° |
| 2026-05-05 21:33 | 50.37326 | -5.83975 | 36039 ft | 451 kts | 330° |
| 2026-05-05 21:34 | 50.43659 | -5.89680 | 36045 ft | 451 kts | 329° |
| 2026-05-05 21:34 | 50.48220 | -5.93799 | 36044 ft | 451 kts | 329° |
| 2026-05-05 21:35 | 50.53631 | -5.98699 | 36049 ft | 452 kts | 329° |
| 2026-05-05 21:35 | 50.59073 | -6.03640 | 36044 ft | 452 kts | 329° |
| 2026-05-05 21:36 | 50.64521 | -6.08600 | 36049 ft | 452 kts | 329° |
| 2026-05-05 21:36 | 50.69981 | -6.13583 | 36048 ft | 452 kts | 329° |
| 2026-05-05 21:37 | 50.75432 | -6.18573 | 36047 ft | 453 kts | 329° |
| 2026-05-05 21:37 | 50.80862 | -6.23557 | 36060 ft | 453 kts | 329° |
| 2026-05-05 21:38 | 50.86320 | -6.28579 | 36047 ft | 453 kts | 329° |
| 2026-05-05 21:38 | 50.92079 | -6.32529 | 36052 ft | 455 kts | 345° |
| 2026-05-05 21:39 | 50.98318 | -6.34411 | 36049 ft | 457 kts | 349° |
| 2026-05-05 21:39 | 51.04587 | -6.36146 | 36059 ft | 457 kts | 348° |
| 2026-05-05 21:40 | 51.10813 | -6.37960 | 36058 ft | 457 kts | 348° |
| 2026-05-05 21:40 | 51.17074 | -6.39831 | 36055 ft | 457 kts | 348° |
| 2026-05-05 21:41 | 51.23342 | -6.41712 | 36055 ft | 458 kts | 348° |
| 2026-05-05 21:41 | 51.29614 | -6.43581 | 36058 ft | 456 kts | 348° |
| 2026-05-05 21:42 | 51.32701 | -6.44417 | 36039 ft | 443 kts | 349° |
| 2026-05-05 21:42 | 51.35696 | -6.45184 | 36040 ft | 430 kts | 349° |
| 2026-05-05 21:42 | 51.41576 | -6.46673 | 36064 ft | 427 kts | 349° |
| 2026-05-05 21:43 | 51.47447 | -6.48191 | 36071 ft | 427 kts | 349° |
| 2026-05-05 21:43 | 51.53263 | -6.49713 | 36053 ft | 421 kts | 349° |
| 2026-05-05 21:44 | 51.59027 | -6.50344 | 35749 ft | 412 kts | 5° |
| 2026-05-05 21:44 | 51.61838 | -6.49467 | 35264 ft | 413 kts | 13° |
| 2026-05-05 21:44 | 51.64614 | -6.48250 | 34770 ft | 413 kts | 13° |
| 2026-05-05 21:45 | 51.67374 | -6.46999 | 34369 ft | 411 kts | 14° |
| 2026-05-05 21:45 | 51.70114 | -6.45752 | 34031 ft | 407 kts | 13° |
| 2026-05-05 21:45 | 51.72830 | -6.44526 | 33640 ft | 403 kts | 13° |
| 2026-05-05 21:45 | 51.75527 | -6.43321 | 33219 ft | 400 kts | 13° |
| 2026-05-05 21:46 | 51.78205 | -6.42134 | 32808 ft | 398 kts | 13° |
| 2026-05-05 21:46 | 51.80845 | -6.40970 | 32398 ft | 395 kts | 13° |
| 2026-05-05 21:46 | 51.83488 | -6.39807 | 32007 ft | 393 kts | 13° |
| 2026-05-05 21:46 | 51.86115 | -6.38652 | 31631 ft | 390 kts | 13° |
| 2026-05-05 21:47 | 51.88731 | -6.37501 | 31256 ft | 387 kts | 13° |
| 2026-05-05 21:47 | 51.91325 | -6.36358 | 30887 ft | 385 kts | 13° |
| 2026-05-05 21:47 | 51.93901 | -6.35223 | 30509 ft | 383 kts | 13° |
| 2026-05-05 21:47 | 51.96486 | -6.34082 | 29858 ft | 387 kts | 13° |
| 2026-05-05 21:48 | 51.99097 | -6.32930 | 29167 ft | 391 kts | 13° |
| 2026-05-05 21:48 | 52.01733 | -6.31765 | 28478 ft | 394 kts | 13° |
| 2026-05-05 21:48 | 52.04387 | -6.30589 | 27807 ft | 396 kts | 13° |
| 2026-05-05 21:48 | 52.07065 | -6.29401 | 27152 ft | 398 kts | 13° |
| 2026-05-05 21:49 | 52.09745 | -6.28210 | 26511 ft | 400 kts | 13° |
| 2026-05-05 21:49 | 52.12432 | -6.27015 | 25882 ft | 402 kts | 13° |
| 2026-05-05 21:49 | 52.15134 | -6.25811 | 25263 ft | 403 kts | 13° |
| 2026-05-05 21:49 | 52.17843 | -6.24602 | 24658 ft | 404 kts | 13° |
| 2026-05-05 21:50 | 52.20522 | -6.23406 | 24072 ft | 405 kts | 13° |
| 2026-05-05 21:50 | 52.23239 | -6.22191 | 23456 ft | 405 kts | 13° |
| 2026-05-05 21:50 | 52.25959 | -6.20973 | 22769 ft | 405 kts | 13° |
| 2026-05-05 21:50 | 52.28675 | -6.19755 | 22100 ft | 405 kts | 13° |
| 2026-05-05 21:51 | 52.31391 | -6.18536 | 21447 ft | 404 kts | 13° |
| 2026-05-05 21:51 | 52.34100 | -6.17318 | 20800 ft | 403 kts | 13° |
| 2026-05-05 21:51 | 52.36806 | -6.16100 | 20166 ft | 402 kts | 14° |
| 2026-05-05 21:51 | 52.39498 | -6.14887 | 19544 ft | 400 kts | 14° |
| 2026-05-05 21:52 | 52.44847 | -6.12472 | 18352 ft | 397 kts | 14° |
| 2026-05-05 21:52 | 52.47509 | -6.11268 | 17674 ft | 395 kts | 14° |
| 2026-05-05 21:52 | 52.50152 | -6.10071 | 17001 ft | 393 kts | 14° |
| 2026-05-05 21:53 | 52.52750 | -6.08893 | 16369 ft | 391 kts | 14° |
| 2026-05-05 21:53 | 52.55366 | -6.07705 | 15731 ft | 388 kts | 14° |
| 2026-05-05 21:53 | 52.57973 | -6.06521 | 15180 ft | 384 kts | 14° |
| 2026-05-05 21:53 | 52.60526 | -6.05358 | 14771 ft | 377 kts | 14° |
| 2026-05-05 21:54 | 52.63033 | -6.04216 | 14371 ft | 370 kts | 14° |
| 2026-05-05 21:54 | 52.65462 | -6.03107 | 13993 ft | 363 kts | 14° |
| 2026-05-05 21:54 | 52.67876 | -6.02005 | 13592 ft | 357 kts | 14° |
| 2026-05-05 21:54 | 52.70258 | -6.00915 | 13191 ft | 351 kts | 14° |
| 2026-05-05 21:55 | 52.72592 | -5.99847 | 12825 ft | 345 kts | 14° |
| 2026-05-05 21:55 | 52.74885 | -5.98797 | 12465 ft | 339 kts | 14° |
| 2026-05-05 21:55 | 52.77136 | -5.97764 | 12110 ft | 334 kts | 14° |
| 2026-05-05 21:55 | 52.79364 | -5.96741 | 11766 ft | 329 kts | 14° |
| 2026-05-05 21:56 | 52.81559 | -5.95733 | 11429 ft | 324 kts | 14° |
| 2026-05-05 21:56 | 52.83715 | -5.94740 | 11091 ft | 320 kts | 14° |
| 2026-05-05 21:56 | 52.85849 | -5.93758 | 10763 ft | 316 kts | 14° |
| 2026-05-05 21:56 | 52.87925 | -5.92801 | 10440 ft | 312 kts | 14° |
| 2026-05-05 21:57 | 52.90031 | -5.91829 | 10172 ft | 307 kts | 14° |
| 2026-05-05 21:57 | 52.92025 | -5.90907 | 10021 ft | 298 kts | 15° |
| 2026-05-05 21:57 | 52.93975 | -5.90005 | 10014 ft | 284 kts | 15° |
| 2026-05-05 21:57 | 52.95840 | -5.89141 | 9866 ft | 276 kts | 14° |
| 2026-05-05 21:58 | 52.97676 | -5.88290 | 9650 ft | 271 kts | 14° |
| 2026-05-05 21:58 | 52.99481 | -5.87453 | 9393 ft | 268 kts | 14° |
| 2026-05-05 21:58 | 53.01267 | -5.86624 | 9097 ft | 266 kts | 14° |
| 2026-05-05 21:58 | 53.03046 | -5.85798 | 8805 ft | 264 kts | 14° |
| 2026-05-05 21:59 | 53.04812 | -5.84977 | 8515 ft | 263 kts | 14° |
| 2026-05-05 21:59 | 53.06571 | -5.84159 | 8243 ft | 261 kts | 14° |
| 2026-05-05 21:59 | 53.08318 | -5.83346 | 7979 ft | 259 kts | 14° |
| 2026-05-05 21:59 | 53.10013 | -5.82555 | 7899 ft | 246 kts | 14° |
| 2026-05-05 22:00 | 53.11615 | -5.81806 | 7769 ft | 232 kts | 14° |
| 2026-05-05 22:00 | 53.13139 | -5.81094 | 7554 ft | 225 kts | 13° |
| 2026-05-05 22:00 | 53.14673 | -5.80931 | 7228 ft | 222 kts | 347° |
| 2026-05-05 22:00 | 53.16145 | -5.81641 | 7024 ft | 219 kts | 341° |
| 2026-05-05 22:01 | 53.17592 | -5.82414 | 6790 ft | 218 kts | 341° |
| 2026-05-05 22:01 | 53.19012 | -5.83176 | 6560 ft | 217 kts | 341° |
| 2026-05-05 22:01 | 53.20445 | -5.83944 | 6286 ft | 217 kts | 341° |
| 2026-05-05 22:01 | 53.21894 | -5.84719 | 6003 ft | 217 kts | 342° |
| 2026-05-05 22:02 | 53.23326 | -5.85484 | 5774 ft | 215 kts | 342° |
| 2026-05-05 22:02 | 53.24740 | -5.86238 | 5565 ft | 212 kts | 342° |
| 2026-05-05 22:02 | 53.26146 | -5.86988 | 5308 ft | 212 kts | 342° |
| 2026-05-05 22:02 | 53.27538 | -5.87731 | 5095 ft | 209 kts | 342° |
| 2026-05-05 22:03 | 53.28917 | -5.88467 | 4901 ft | 206 kts | 342° |
| 2026-05-05 22:03 | 53.30258 | -5.89183 | 4703 ft | 203 kts | 342° |
| 2026-05-05 22:03 | 53.31602 | -5.89901 | 4510 ft | 204 kts | 342° |
| 2026-05-05 22:03 | 53.32966 | -5.90629 | 4331 ft | 207 kts | 342° |
| 2026-05-05 22:04 | 53.34343 | -5.91365 | 4142 ft | 208 kts | 343° |
| 2026-05-05 22:04 | 53.35722 | -5.92103 | 3941 ft | 207 kts | 343° |
| 2026-05-05 22:04 | 53.37091 | -5.92835 | 3748 ft | 206 kts | 343° |
| 2026-05-05 22:04 | 53.38457 | -5.93567 | 3551 ft | 206 kts | 343° |
| 2026-05-05 22:05 | 53.39742 | -5.94597 | 3337 ft | 208 kts | 319° |
| 2026-05-05 22:05 | 53.40435 | -5.96704 | 3163 ft | 213 kts | 285° |
| 2026-05-05 22:05 | 53.40633 | -5.99146 | 3048 ft | 208 kts | 279° |
| 2026-05-05 22:05 | 53.40769 | -6.01508 | 2993 ft | 198 kts | 278° |
| 2026-05-05 22:06 | 53.40886 | -6.03744 | 2794 ft | 193 kts | 278° |
| 2026-05-05 22:06 | 53.41002 | -6.05964 | 2543 ft | 190 kts | 278° |
| 2026-05-05 22:06 | 53.41116 | -6.08129 | 2284 ft | 181 kts | 278° |
| 2026-05-05 22:06 | 53.41225 | -6.10154 | 2038 ft | 170 kts | 279° |
| 2026-05-05 22:07 | 53.41313 | -6.12085 | 1799 ft | 160 kts | 276° |
| 2026-05-05 22:07 | 53.41385 | -6.13950 | 1681 ft | 164 kts | 277° |
| 2026-05-05 22:07 | 53.41490 | -6.15841 | 1404 ft | 159 kts | 279° |
| 2026-05-05 22:07 | 53.41615 | -6.17632 | 1214 ft | 154 kts | 279° |
| 2026-05-05 22:08 | 53.41709 | -6.19429 | 966 ft | 154 kts | 277° |
| 2026-05-05 22:08 | 53.41812 | -6.21210 | 735 ft | 153 kts | 277° |
| 2026-05-05 22:08 | 53.41912 | -6.22972 | 507 ft | 151 kts | 277° |
| 2026-05-05 22:08 | 53.42008 | -6.24719 | 290 ft | 149 kts | 276° |
| 2026-05-05 22:09 | 53.42097 | -6.26374 | 211 ft | 124 kts | 275° |
| 2026-05-05 22:09 | 53.42134 | -6.27010 | 210 ft | 17 kts | 289° |
| 2026-05-05 22:09 | 53.42233 | -6.27052 | 210 ft | 14 kts | 5° |
| 2026-05-05 22:09 | 53.42303 | -6.26968 | 210 ft | 14 kts | 90° |
| 2026-05-05 22:10 | 53.42295 | -6.26815 | 210 ft | 13 kts | 95° |
| 2026-05-05 22:10 | 53.42287 | -6.26674 | 210 ft | 12 kts | 95° |
| 2026-05-05 22:10 | 53.42280 | -6.26544 | 212 ft | 11 kts | 95° |
| 2026-05-05 22:10 | 53.42273 | -6.26425 | 216 ft | 10 kts | 95° |
| 2026-05-05 22:11 | 53.42267 | -6.26314 | 210 ft | 9 kts | 95° |
| 2026-05-05 22:11 | 53.42262 | -6.26205 | 212 ft | 11 kts | 95° |
| 2026-05-05 22:11 | 53.42257 | -6.26061 | 210 ft | 14 kts | 83° |
| 2026-05-05 22:11 | 53.42299 | -6.25913 | 214 ft | 14 kts | 55° |
| 2026-05-05 22:12 | 53.42367 | -6.25790 | 212 ft | 14 kts | 46° |
| 2026-05-05 22:12 | 53.42438 | -6.25668 | 210 ft | 15 kts | 45° |
| 2026-05-05 22:12 | 53.42511 | -6.25544 | 215 ft | 15 kts | 45° |
| 2026-05-05 22:12 | 53.42588 | -6.25412 | 209 ft | 16 kts | 45° |
| 2026-05-05 22:13 | 53.42666 | -6.25279 | 218 ft | 16 kts | 45° |
| 2026-05-05 22:13 | 53.42744 | -6.25146 | 210 ft | 16 kts | 45° |
| 2026-05-05 22:13 | 53.42831 | -6.25024 | 210 ft | 16 kts | 38° |
| 2026-05-05 22:13 | 53.42901 | -6.24901 | 210 ft | 11 kts | 45° |
| 2026-05-05 22:14 | 53.42948 | -6.24936 | 216 ft | 8 kts | 283° |
| 2026-05-05 22:14 | 53.42960 | -6.25010 | 216 ft | 2 kts | 317° |
| 2026-05-05 22:14 | 53.42961 | -6.25011 | 215 ft | 1 kts | 321° |
| 2026-05-05 22:14 | 53.42963 | -6.25013 | 214 ft | 0 kts | 330° |
| 2026-05-05 22:15 | 53.42966 | -6.25014 | 213 ft | 0 kts | 340° |
| 2026-05-05 22:15 | 53.42970 | -6.25015 | 212 ft | 0 kts | 346° |
| 2026-05-05 22:15 | 53.42974 | -6.25015 | 210 ft | 1 kts | 359° |
| 2026-05-05 22:16 | 53.42977 | -6.25014 | 210 ft | 1 kts | 5° |
| 2026-05-05 22:16 | 53.42979 | -6.25014 | 210 ft | 1 kts | 5° |
| 2026-05-05 22:16 | 53.43006 | -6.25009 | 214 ft | 0 kts | 5° |